sensor_id;sensor_type;location;lat;lon;timestamp;P1;durP1;ratioP1;P2;durP2;ratioP2
46036;SDS011;31769;49.304;8.428;2022-12-18T00:01:20;123.03;;;44.70;;
46036;SDS011;31769;49.304;8.428;2022-12-18T00:04:23;125.65;;;46.25;;
46036;SDS011;31769;49.304;8.428;2022-12-18T00:07:25;124.65;;;48.13;;
46036;SDS011;31769;49.304;8.428;2022-12-18T00:10:27;124.43;;;45.50;;
46036;SDS011;31769;49.304;8.428;2022-12-18T00:13:28;120.57;;;46.17;;
46036;SDS011;31769;49.304;8.428;2022-12-18T00:16:29;121.30;;;45.58;;
46036;SDS011;31769;49.304;8.428;2022-12-18T00:19:32;118.28;;;44.33;;
46036;SDS011;31769;49.304;8.428;2022-12-18T00:22:33;112.25;;;42.67;;
46036;SDS011;31769;49.304;8.428;2022-12-18T00:25:34;129.68;;;45.00;;
46036;SDS011;31769;49.304;8.428;2022-12-18T00:28:36;113.63;;;41.92;;
46036;SDS011;31769;49.304;8.428;2022-12-18T00:31:37;117.72;;;42.35;;
46036;SDS011;31769;49.304;8.428;2022-12-18T00:34:38;105.63;;;38.78;;
46036;SDS011;31769;49.304;8.428;2022-12-18T00:37:38;112.47;;;44.72;;
46036;SDS011;31769;49.304;8.428;2022-12-18T00:40:39;126.00;;;44.67;;
46036;SDS011;31769;49.304;8.428;2022-12-18T00:43:40;124.70;;;44.72;;
46036;SDS011;31769;49.304;8.428;2022-12-18T00:46:41;128.68;;;47.38;;
46036;SDS011;31769;49.304;8.428;2022-12-18T00:49:42;122.72;;;45.17;;
46036;SDS011;31769;49.304;8.428;2022-12-18T00:52:43;117.18;;;43.05;;
46036;SDS011;31769;49.304;8.428;2022-12-18T00:55:44;119.07;;;44.58;;
46036;SDS011;31769;49.304;8.428;2022-12-18T00:58:53;116.85;;;44.25;;
46036;SDS011;31769;49.304;8.428;2022-12-18T01:01:54;119.53;;;44.63;;
46036;SDS011;31769;49.304;8.428;2022-12-18T01:04:54;118.50;;;41.25;;
46036;SDS011;31769;49.304;8.428;2022-12-18T01:07:55;113.82;;;43.25;;
46036;SDS011;31769;49.304;8.428;2022-12-18T01:10:56;122.88;;;44.45;;
46036;SDS011;31769;49.304;8.428;2022-12-18T01:13:59;133.88;;;49.50;;
46036;SDS011;31769;49.304;8.428;2022-12-18T01:17:00;116.90;;;44.30;;
46036;SDS011;31769;49.304;8.428;2022-12-18T01:20:03;116.80;;;45.90;;
46036;SDS011;31769;49.304;8.428;2022-12-18T01:23:04;108.40;;;43.17;;
46036;SDS011;31769;49.304;8.428;2022-12-18T01:26:05;104.10;;;41.75;;
46036;SDS011;31769;49.304;8.428;2022-12-18T01:29:09;114.95;;;44.30;;
46036;SDS011;31769;49.304;8.428;2022-12-18T01:32:09;115.82;;;43.53;;
46036;SDS011;31769;49.304;8.428;2022-12-18T01:35:10;107.35;;;44.85;;
46036;SDS011;31769;49.304;8.428;2022-12-18T01:38:11;105.97;;;43.38;;
46036;SDS011;31769;49.304;8.428;2022-12-18T01:41:12;111.53;;;43.90;;
46036;SDS011;31769;49.304;8.428;2022-12-18T01:47:56;110.55;;;44.03;;
46036;SDS011;31769;49.304;8.428;2022-12-18T01:51:00;105.60;;;43.55;;
46036;SDS011;31769;49.304;8.428;2022-12-18T01:54:01;111.63;;;44.60;;
46036;SDS011;31769;49.304;8.428;2022-12-18T01:57:02;107.75;;;42.88;;
46036;SDS011;31769;49.304;8.428;2022-12-18T02:00:05;116.13;;;42.92;;
46036;SDS011;31769;49.304;8.428;2022-12-18T02:03:25;100.03;;;40.55;;
46036;SDS011;31769;49.304;8.428;2022-12-18T02:06:30;102.68;;;39.28;;
46036;SDS011;31769;49.304;8.428;2022-12-18T02:10:20;103.65;;;41.20;;
46036;SDS011;31769;49.304;8.428;2022-12-18T02:16:34;101.60;;;38.10;;
46036;SDS011;31769;49.304;8.428;2022-12-18T02:27:12;96.15;;;39.72;;
46036;SDS011;31769;49.304;8.428;2022-12-18T02:30:13;108.03;;;41.63;;
46036;SDS011;31769;49.304;8.428;2022-12-18T02:33:15;110.78;;;45.70;;
46036;SDS011;31769;49.304;8.428;2022-12-18T02:36:17;118.15;;;42.70;;
46036;SDS011;31769;49.304;8.428;2022-12-18T02:39:22;112.03;;;41.33;;
46036;SDS011;31769;49.304;8.428;2022-12-18T02:42:36;112.85;;;41.97;;
46036;SDS011;31769;49.304;8.428;2022-12-18T02:45:46;109.75;;;39.50;;
46036;SDS011;31769;49.304;8.428;2022-12-18T02:55:47;110.60;;;42.85;;
46036;SDS011;31769;49.304;8.428;2022-12-18T02:59:12;108.32;;;40.72;;
46036;SDS011;31769;49.304;8.428;2022-12-18T03:02:33;125.75;;;53.20;;
46036;SDS011;31769;49.304;8.428;2022-12-18T03:05:47;117.55;;;49.75;;
46036;SDS011;31769;49.304;8.428;2022-12-18T03:09:01;97.55;;;43.55;;
46036;SDS011;31769;49.304;8.428;2022-12-18T03:12:11;105.57;;;40.63;;
46036;SDS011;31769;49.304;8.428;2022-12-18T03:15:24;105.43;;;40.65;;
46036;SDS011;31769;49.304;8.428;2022-12-18T03:18:51;111.72;;;38.60;;
46036;SDS011;31769;49.304;8.428;2022-12-18T03:22:05;111.70;;;44.38;;
46036;SDS011;31769;49.304;8.428;2022-12-18T03:25:16;109.13;;;42.70;;
46036;SDS011;31769;49.304;8.428;2022-12-18T03:28:20;118.75;;;45.17;;
46036;SDS011;31769;49.304;8.428;2022-12-18T03:31:27;108.90;;;41.60;;
46036;SDS011;31769;49.304;8.428;2022-12-18T03:34:32;112.38;;;42.38;;
46036;SDS011;31769;49.304;8.428;2022-12-18T03:37:38;108.60;;;40.35;;
46036;SDS011;31769;49.304;8.428;2022-12-18T03:48:43;112.07;;;38.70;;
46036;SDS011;31769;49.304;8.428;2022-12-18T03:52:06;104.07;;;36.13;;
46036;SDS011;31769;49.304;8.428;2022-12-18T03:55:18;100.68;;;37.97;;
46036;SDS011;31769;49.304;8.428;2022-12-18T03:58:25;105.97;;;39.83;;
46036;SDS011;31769;49.304;8.428;2022-12-18T04:01:40;102.57;;;40.40;;
46036;SDS011;31769;49.304;8.428;2022-12-18T04:04:47;96.50;;;37.15;;
46036;SDS011;31769;49.304;8.428;2022-12-18T04:07:51;93.03;;;38.42;;
46036;SDS011;31769;49.304;8.428;2022-12-18T04:10:55;93.60;;;36.00;;
46036;SDS011;31769;49.304;8.428;2022-12-18T04:13:57;96.75;;;37.42;;
46036;SDS011;31769;49.304;8.428;2022-12-18T04:16:58;91.80;;;38.63;;
46036;SDS011;31769;49.304;8.428;2022-12-18T04:20:04;85.88;;;38.35;;
46036;SDS011;31769;49.304;8.428;2022-12-18T04:23:05;94.13;;;37.63;;
46036;SDS011;31769;49.304;8.428;2022-12-18T04:26:07;88.15;;;35.90;;
46036;SDS011;31769;49.304;8.428;2022-12-18T04:29:17;91.07;;;36.33;;
46036;SDS011;31769;49.304;8.428;2022-12-18T04:32:17;87.30;;;37.25;;
46036;SDS011;31769;49.304;8.428;2022-12-18T04:35:18;87.40;;;34.92;;
46036;SDS011;31769;49.304;8.428;2022-12-18T04:38:19;91.10;;;36.92;;
46036;SDS011;31769;49.304;8.428;2022-12-18T04:41:25;95.55;;;43.38;;
46036;SDS011;31769;49.304;8.428;2022-12-18T04:44:27;83.35;;;35.85;;
46036;SDS011;31769;49.304;8.428;2022-12-18T04:47:28;78.68;;;32.10;;
46036;SDS011;31769;49.304;8.428;2022-12-18T04:50:28;86.30;;;38.38;;
46036;SDS011;31769;49.304;8.428;2022-12-18T04:53:29;83.63;;;37.35;;
46036;SDS011;31769;49.304;8.428;2022-12-18T04:56:31;84.95;;;34.92;;
46036;SDS011;31769;49.304;8.428;2022-12-18T04:59:32;80.00;;;36.47;;
46036;SDS011;31769;49.304;8.428;2022-12-18T05:02:32;81.32;;;34.42;;
46036;SDS011;31769;49.304;8.428;2022-12-18T05:05:36;84.25;;;36.72;;
46036;SDS011;31769;49.304;8.428;2022-12-18T05:08:37;89.13;;;46.60;;
46036;SDS011;31769;49.304;8.428;2022-12-18T05:11:38;88.65;;;37.95;;
46036;SDS011;31769;49.304;8.428;2022-12-18T05:14:38;81.57;;;36.78;;
46036;SDS011;31769;49.304;8.428;2022-12-18T05:17:39;87.70;;;37.22;;
46036;SDS011;31769;49.304;8.428;2022-12-18T05:20:40;83.25;;;35.92;;
46036;SDS011;31769;49.304;8.428;2022-12-18T05:23:40;85.55;;;34.28;;
46036;SDS011;31769;49.304;8.428;2022-12-18T05:26:41;84.72;;;37.97;;
46036;SDS011;31769;49.304;8.428;2022-12-18T05:29:42;84.65;;;35.75;;
46036;SDS011;31769;49.304;8.428;2022-12-18T05:32:42;79.38;;;34.97;;
46036;SDS011;31769;49.304;8.428;2022-12-18T05:35:43;84.13;;;33.10;;
46036;SDS011;31769;49.304;8.428;2022-12-18T05:38:44;89.95;;;39.00;;
46036;SDS011;31769;49.304;8.428;2022-12-18T05:41:45;81.22;;;35.97;;
46036;SDS011;31769;49.304;8.428;2022-12-18T05:44:46;87.40;;;38.67;;
46036;SDS011;31769;49.304;8.428;2022-12-18T05:47:46;92.22;;;39.85;;
46036;SDS011;31769;49.304;8.428;2022-12-18T05:50:47;95.47;;;37.83;;
46036;SDS011;31769;49.304;8.428;2022-12-18T05:53:49;82.13;;;34.22;;
46036;SDS011;31769;49.304;8.428;2022-12-18T05:56:49;81.93;;;36.53;;
46036;SDS011;31769;49.304;8.428;2022-12-18T05:59:50;84.47;;;34.58;;
46036;SDS011;31769;49.304;8.428;2022-12-18T06:02:51;77.30;;;31.02;;
46036;SDS011;31769;49.304;8.428;2022-12-18T06:05:52;78.43;;;32.92;;
46036;SDS011;31769;49.304;8.428;2022-12-18T06:08:52;81.10;;;33.47;;
46036;SDS011;31769;49.304;8.428;2022-12-18T06:11:54;85.45;;;35.90;;
46036;SDS011;31769;49.304;8.428;2022-12-18T06:14:55;91.05;;;40.08;;
46036;SDS011;31769;49.304;8.428;2022-12-18T06:17:55;83.78;;;33.55;;
46036;SDS011;31769;49.304;8.428;2022-12-18T06:20:56;84.35;;;38.63;;
46036;SDS011;31769;49.304;8.428;2022-12-18T06:23:58;81.18;;;33.33;;
46036;SDS011;31769;49.304;8.428;2022-12-18T06:26:59;88.18;;;39.22;;
46036;SDS011;31769;49.304;8.428;2022-12-18T06:30:00;86.50;;;34.00;;
46036;SDS011;31769;49.304;8.428;2022-12-18T06:33:01;76.28;;;30.10;;
46036;SDS011;31769;49.304;8.428;2022-12-18T06:36:03;74.85;;;31.38;;
46036;SDS011;31769;49.304;8.428;2022-12-18T06:39:09;88.43;;;33.92;;
46036;SDS011;31769;49.304;8.428;2022-12-18T06:42:09;82.97;;;34.15;;
46036;SDS011;31769;49.304;8.428;2022-12-18T06:45:10;83.05;;;37.55;;
46036;SDS011;31769;49.304;8.428;2022-12-18T06:48:11;83.30;;;33.90;;
46036;SDS011;31769;49.304;8.428;2022-12-18T06:51:12;87.35;;;34.25;;
46036;SDS011;31769;49.304;8.428;2022-12-18T06:54:16;80.85;;;33.72;;
46036;SDS011;31769;49.304;8.428;2022-12-18T06:57:17;81.07;;;34.90;;
46036;SDS011;31769;49.304;8.428;2022-12-18T07:00:18;79.95;;;35.08;;
46036;SDS011;31769;49.304;8.428;2022-12-18T07:03:18;81.82;;;35.55;;
46036;SDS011;31769;49.304;8.428;2022-12-18T07:06:20;84.28;;;34.92;;
46036;SDS011;31769;49.304;8.428;2022-12-18T07:09:22;81.57;;;34.95;;
46036;SDS011;31769;49.304;8.428;2022-12-18T07:12:23;74.80;;;32.00;;
46036;SDS011;31769;49.304;8.428;2022-12-18T07:15:23;82.03;;;34.90;;
46036;SDS011;31769;49.304;8.428;2022-12-18T07:18:24;81.43;;;32.92;;
46036;SDS011;31769;49.304;8.428;2022-12-18T07:21:25;87.72;;;35.45;;
46036;SDS011;31769;49.304;8.428;2022-12-18T07:24:26;80.65;;;34.35;;
46036;SDS011;31769;49.304;8.428;2022-12-18T07:27:26;119.72;;;50.30;;
46036;SDS011;31769;49.304;8.428;2022-12-18T07:30:27;93.57;;;37.95;;
46036;SDS011;31769;49.304;8.428;2022-12-18T07:33:28;90.95;;;38.10;;
46036;SDS011;31769;49.304;8.428;2022-12-18T07:36:29;86.45;;;35.80;;
46036;SDS011;31769;49.304;8.428;2022-12-18T07:39:29;81.85;;;35.80;;
46036;SDS011;31769;49.304;8.428;2022-12-18T07:42:30;79.53;;;37.08;;
46036;SDS011;31769;49.304;8.428;2022-12-18T07:45:31;90.43;;;37.80;;
46036;SDS011;31769;49.304;8.428;2022-12-18T07:48:31;86.43;;;36.58;;
46036;SDS011;31769;49.304;8.428;2022-12-18T07:51:32;89.03;;;39.00;;
46036;SDS011;31769;49.304;8.428;2022-12-18T07:54:33;84.70;;;37.63;;
46036;SDS011;31769;49.304;8.428;2022-12-18T07:57:34;81.82;;;39.40;;
46036;SDS011;31769;49.304;8.428;2022-12-18T08:00:34;88.22;;;41.80;;
46036;SDS011;31769;49.304;8.428;2022-12-18T08:03:35;81.32;;;39.60;;
46036;SDS011;31769;49.304;8.428;2022-12-18T08:06:37;82.32;;;39.00;;
46036;SDS011;31769;49.304;8.428;2022-12-18T08:09:37;81.30;;;39.35;;
46036;SDS011;31769;49.304;8.428;2022-12-18T08:12:38;78.63;;;40.05;;
46036;SDS011;31769;49.304;8.428;2022-12-18T08:15:39;76.57;;;39.35;;
46036;SDS011;31769;49.304;8.428;2022-12-18T08:18:40;81.20;;;40.35;;
46036;SDS011;31769;49.304;8.428;2022-12-18T08:21:41;92.85;;;45.42;;
46036;SDS011;31769;49.304;8.428;2022-12-18T08:24:42;88.60;;;42.15;;
46036;SDS011;31769;49.304;8.428;2022-12-18T08:27:42;82.05;;;41.53;;
46036;SDS011;31769;49.304;8.428;2022-12-18T08:30:43;85.05;;;43.38;;
46036;SDS011;31769;49.304;8.428;2022-12-18T08:33:44;79.05;;;40.33;;
46036;SDS011;31769;49.304;8.428;2022-12-18T08:36:45;83.32;;;42.35;;
46036;SDS011;31769;49.304;8.428;2022-12-18T08:39:45;80.22;;;42.58;;
46036;SDS011;31769;49.304;8.428;2022-12-18T08:42:46;77.75;;;40.30;;
46036;SDS011;31769;49.304;8.428;2022-12-18T08:46:06;80.60;;;41.15;;
46036;SDS011;31769;49.304;8.428;2022-12-18T08:49:07;78.03;;;41.58;;
46036;SDS011;31769;49.304;8.428;2022-12-18T08:52:08;83.85;;;41.65;;
46036;SDS011;31769;49.304;8.428;2022-12-18T08:55:09;79.28;;;40.85;;
46036;SDS011;31769;49.304;8.428;2022-12-18T08:58:10;73.88;;;39.00;;
46036;SDS011;31769;49.304;8.428;2022-12-18T09:01:11;74.93;;;41.55;;
46036;SDS011;31769;49.304;8.428;2022-12-18T09:04:13;72.72;;;40.75;;
46036;SDS011;31769;49.304;8.428;2022-12-18T09:07:15;77.15;;;42.45;;
46036;SDS011;31769;49.304;8.428;2022-12-18T09:10:16;76.60;;;43.22;;
46036;SDS011;31769;49.304;8.428;2022-12-18T09:13:17;83.18;;;45.85;;
46036;SDS011;31769;49.304;8.428;2022-12-18T09:16:18;81.38;;;45.13;;
46036;SDS011;31769;49.304;8.428;2022-12-18T09:19:20;80.03;;;44.75;;
46036;SDS011;31769;49.304;8.428;2022-12-18T09:22:20;75.07;;;41.15;;
46036;SDS011;31769;49.304;8.428;2022-12-18T09:25:21;84.95;;;50.28;;
46036;SDS011;31769;49.304;8.428;2022-12-18T09:28:22;79.95;;;43.03;;
46036;SDS011;31769;49.304;8.428;2022-12-18T09:31:23;73.30;;;42.75;;
46036;SDS011;31769;49.304;8.428;2022-12-18T09:34:24;74.90;;;42.45;;
46036;SDS011;31769;49.304;8.428;2022-12-18T09:37:25;74.88;;;41.95;;
46036;SDS011;31769;49.304;8.428;2022-12-18T09:40:26;73.10;;;41.25;;
46036;SDS011;31769;49.304;8.428;2022-12-18T09:43:42;77.10;;;43.22;;
46036;SDS011;31769;49.304;8.428;2022-12-18T09:46:50;72.53;;;43.08;;
46036;SDS011;31769;49.304;8.428;2022-12-18T09:50:03;73.68;;;43.38;;
46036;SDS011;31769;49.304;8.428;2022-12-18T09:53:17;75.05;;;43.05;;
46036;SDS011;31769;49.304;8.428;2022-12-18T09:56:22;69.53;;;42.78;;
46036;SDS011;31769;49.304;8.428;2022-12-18T09:59:27;73.20;;;44.03;;
46036;SDS011;31769;49.304;8.428;2022-12-18T10:02:37;69.47;;;42.03;;
46036;SDS011;31769;49.304;8.428;2022-12-18T10:05:54;72.10;;;43.20;;
46036;SDS011;31769;49.304;8.428;2022-12-18T10:12:31;71.07;;;41.95;;
46036;SDS011;31769;49.304;8.428;2022-12-18T10:15:43;75.10;;;45.85;;
46036;SDS011;31769;49.304;8.428;2022-12-18T10:22:47;69.85;;;42.83;;
46036;SDS011;31769;49.304;8.428;2022-12-18T10:26:05;68.28;;;43.33;;
46036;SDS011;31769;49.304;8.428;2022-12-18T10:29:09;69.95;;;44.65;;
46036;SDS011;31769;49.304;8.428;2022-12-18T10:32:14;77.18;;;48.42;;
46036;SDS011;31769;49.304;8.428;2022-12-18T10:35:26;70.72;;;44.97;;
46036;SDS011;31769;49.304;8.428;2022-12-18T10:38:27;66.82;;;43.75;;
46036;SDS011;31769;49.304;8.428;2022-12-18T10:41:30;64.82;;;41.92;;
46036;SDS011;31769;49.304;8.428;2022-12-18T10:44:32;67.03;;;43.55;;
46036;SDS011;31769;49.304;8.428;2022-12-18T10:47:33;65.45;;;43.15;;
46036;SDS011;31769;49.304;8.428;2022-12-18T10:50:35;65.72;;;42.60;;
46036;SDS011;31769;49.304;8.428;2022-12-18T10:53:37;67.07;;;43.42;;
46036;SDS011;31769;49.304;8.428;2022-12-18T10:56:41;63.67;;;43.45;;
46036;SDS011;31769;49.304;8.428;2022-12-18T10:59:54;70.50;;;44.78;;
46036;SDS011;31769;49.304;8.428;2022-12-18T11:02:57;68.35;;;43.70;;
46036;SDS011;31769;49.304;8.428;2022-12-18T11:06:05;63.10;;;41.95;;
46036;SDS011;31769;49.304;8.428;2022-12-18T11:09:25;62.83;;;42.20;;
46036;SDS011;31769;49.304;8.428;2022-12-18T11:12:27;61.90;;;43.30;;
46036;SDS011;31769;49.304;8.428;2022-12-18T11:15:29;59.10;;;43.08;;
46036;SDS011;31769;49.304;8.428;2022-12-18T11:18:34;89.60;;;63.00;;
46036;SDS011;31769;49.304;8.428;2022-12-18T11:21:39;52.00;;;38.08;;
46036;SDS011;31769;49.304;8.428;2022-12-18T11:24:42;67.90;;;47.22;;
46036;SDS011;31769;49.304;8.428;2022-12-18T11:27:49;54.75;;;36.70;;
46036;SDS011;31769;49.304;8.428;2022-12-18T11:31:14;54.92;;;36.28;;
46036;SDS011;31769;49.304;8.428;2022-12-18T11:34:23;97.03;;;58.70;;
46036;SDS011;31769;49.304;8.428;2022-12-18T11:37:28;65.57;;;43.05;;
46036;SDS011;31769;49.304;8.428;2022-12-18T11:43:42;59.00;;;41.60;;
46036;SDS011;31769;49.304;8.428;2022-12-18T11:46:59;63.75;;;42.97;;
46036;SDS011;31769;49.304;8.428;2022-12-18T11:50:03;56.72;;;38.22;;
46036;SDS011;31769;49.304;8.428;2022-12-18T11:53:17;63.13;;;43.05;;
46036;SDS011;31769;49.304;8.428;2022-12-18T11:56:29;59.03;;;39.45;;
46036;SDS011;31769;49.304;8.428;2022-12-18T12:03:19;60.95;;;42.63;;
46036;SDS011;31769;49.304;8.428;2022-12-18T12:16:44;56.70;;;38.92;;
46036;SDS011;31769;49.304;8.428;2022-12-18T12:23:23;57.00;;;37.78;;
46036;SDS011;31769;49.304;8.428;2022-12-18T12:39:58;59.47;;;38.33;;
46036;SDS011;31769;49.304;8.428;2022-12-18T12:43:03;57.92;;;40.45;;
46036;SDS011;31769;49.304;8.428;2022-12-18T12:46:16;80.50;;;57.50;;
46036;SDS011;31769;49.304;8.428;2022-12-18T12:49:20;67.07;;;43.63;;
46036;SDS011;31769;49.304;8.428;2022-12-18T12:52:35;67.27;;;42.73;;
46036;SDS011;31769;49.304;8.428;2022-12-18T12:55:41;56.90;;;40.22;;
46036;SDS011;31769;49.304;8.428;2022-12-18T12:58:51;59.72;;;41.58;;
46036;SDS011;31769;49.304;8.428;2022-12-18T13:08:31;61.63;;;41.00;;
46036;SDS011;31769;49.304;8.428;2022-12-18T13:11:51;64.53;;;42.55;;
46036;SDS011;31769;49.304;8.428;2022-12-18T13:15:19;66.50;;;41.95;;
46036;SDS011;31769;49.304;8.428;2022-12-18T13:18:22;61.20;;;42.63;;
46036;SDS011;31769;49.304;8.428;2022-12-18T13:21:26;65.38;;;42.70;;
46036;SDS011;31769;49.304;8.428;2022-12-18T13:24:30;70.32;;;46.90;;
46036;SDS011;31769;49.304;8.428;2022-12-18T13:30:45;72.65;;;46.53;;
46036;SDS011;31769;49.304;8.428;2022-12-18T13:33:50;70.75;;;46.00;;
46036;SDS011;31769;49.304;8.428;2022-12-18T13:44:10;69.82;;;43.75;;
46036;SDS011;31769;49.304;8.428;2022-12-18T13:47:36;83.72;;;53.03;;
46036;SDS011;31769;49.304;8.428;2022-12-18T13:50:38;108.13;;;66.53;;
46036;SDS011;31769;49.304;8.428;2022-12-18T13:53:42;83.10;;;50.90;;
46036;SDS011;31769;49.304;8.428;2022-12-18T13:56:47;70.07;;;44.60;;
46036;SDS011;31769;49.304;8.428;2022-12-18T13:59:48;72.38;;;45.45;;
46036;SDS011;31769;49.304;8.428;2022-12-18T14:02:49;74.35;;;46.90;;
46036;SDS011;31769;49.304;8.428;2022-12-18T14:06:00;116.13;;;68.20;;
46036;SDS011;31769;49.304;8.428;2022-12-18T14:09:05;78.18;;;45.78;;
46036;SDS011;31769;49.304;8.428;2022-12-18T14:12:06;73.13;;;44.33;;
46036;SDS011;31769;49.304;8.428;2022-12-18T14:15:41;76.07;;;46.38;;
46036;SDS011;31769;49.304;8.428;2022-12-18T14:18:45;76.70;;;45.95;;
46036;SDS011;31769;49.304;8.428;2022-12-18T14:21:58;74.60;;;44.55;;
46036;SDS011;31769;49.304;8.428;2022-12-18T14:25:10;73.28;;;43.60;;
46036;SDS011;31769;49.304;8.428;2022-12-18T14:28:14;78.03;;;44.00;;
46036;SDS011;31769;49.304;8.428;2022-12-18T14:31:19;77.43;;;44.28;;
46036;SDS011;31769;49.304;8.428;2022-12-18T14:34:22;79.03;;;45.30;;
46036;SDS011;31769;49.304;8.428;2022-12-18T14:37:26;94.03;;;51.33;;
46036;SDS011;31769;49.304;8.428;2022-12-18T14:40:27;83.18;;;50.75;;
46036;SDS011;31769;49.304;8.428;2022-12-18T14:43:29;91.95;;;53.45;;
46036;SDS011;31769;49.304;8.428;2022-12-18T14:49:36;92.80;;;56.60;;
46036;SDS011;31769;49.304;8.428;2022-12-18T14:52:38;88.60;;;50.80;;
46036;SDS011;31769;49.304;8.428;2022-12-18T14:55:39;84.07;;;47.67;;
46036;SDS011;31769;49.304;8.428;2022-12-18T14:58:57;86.10;;;48.15;;
46036;SDS011;31769;49.304;8.428;2022-12-18T15:02:12;92.93;;;49.25;;
46036;SDS011;31769;49.304;8.428;2022-12-18T15:05:30;85.90;;;49.90;;
46036;SDS011;31769;49.304;8.428;2022-12-18T15:08:35;158.15;;;99.78;;
46036;SDS011;31769;49.304;8.428;2022-12-18T15:14:40;88.30;;;48.47;;
46036;SDS011;31769;49.304;8.428;2022-12-18T15:17:41;87.22;;;47.35;;
46036;SDS011;31769;49.304;8.428;2022-12-18T15:20:44;85.53;;;47.78;;
46036;SDS011;31769;49.304;8.428;2022-12-18T15:23:56;93.38;;;50.55;;
46036;SDS011;31769;49.304;8.428;2022-12-18T15:26:59;88.22;;;46.17;;
46036;SDS011;31769;49.304;8.428;2022-12-18T15:33:20;92.10;;;48.80;;
46036;SDS011;31769;49.304;8.428;2022-12-18T15:36:24;92.82;;;48.20;;
46036;SDS011;31769;49.304;8.428;2022-12-18T15:39:25;91.97;;;47.95;;
46036;SDS011;31769;49.304;8.428;2022-12-18T15:42:26;88.85;;;43.85;;
46036;SDS011;31769;49.304;8.428;2022-12-18T15:45:45;81.57;;;43.50;;
46036;SDS011;31769;49.304;8.428;2022-12-18T15:48:47;86.00;;;46.08;;
46036;SDS011;31769;49.304;8.428;2022-12-18T15:51:56;89.80;;;44.78;;
46036;SDS011;31769;49.304;8.428;2022-12-18T15:58:18;88.03;;;45.70;;
46036;SDS011;31769;49.304;8.428;2022-12-18T16:01:20;86.53;;;43.92;;
46036;SDS011;31769;49.304;8.428;2022-12-18T16:04:26;83.95;;;44.17;;
46036;SDS011;31769;49.304;8.428;2022-12-18T16:07:27;82.30;;;44.10;;
46036;SDS011;31769;49.304;8.428;2022-12-18T16:10:27;86.07;;;44.03;;
46036;SDS011;31769;49.304;8.428;2022-12-18T16:13:28;88.03;;;43.78;;
46036;SDS011;31769;49.304;8.428;2022-12-18T16:16:29;86.70;;;44.10;;
46036;SDS011;31769;49.304;8.428;2022-12-18T16:19:30;78.60;;;41.85;;
46036;SDS011;31769;49.304;8.428;2022-12-18T16:22:30;76.55;;;40.30;;
46036;SDS011;31769;49.304;8.428;2022-12-18T16:25:31;80.72;;;41.60;;
46036;SDS011;31769;49.304;8.428;2022-12-18T16:28:32;75.13;;;38.65;;
46036;SDS011;31769;49.304;8.428;2022-12-18T16:31:33;78.00;;;39.58;;
46036;SDS011;31769;49.304;8.428;2022-12-18T16:34:34;80.65;;;42.63;;
46036;SDS011;31769;49.304;8.428;2022-12-18T16:37:34;82.63;;;42.70;;
46036;SDS011;31769;49.304;8.428;2022-12-18T16:40:35;73.88;;;39.17;;
46036;SDS011;31769;49.304;8.428;2022-12-18T16:43:58;77.93;;;38.42;;
46036;SDS011;31769;49.304;8.428;2022-12-18T16:47:00;78.70;;;38.80;;
46036;SDS011;31769;49.304;8.428;2022-12-18T16:50:02;74.72;;;38.22;;
46036;SDS011;31769;49.304;8.428;2022-12-18T16:53:03;76.85;;;39.90;;
46036;SDS011;31769;49.304;8.428;2022-12-18T16:56:04;72.50;;;38.70;;
46036;SDS011;31769;49.304;8.428;2022-12-18T16:59:05;74.60;;;38.03;;
46036;SDS011;31769;49.304;8.428;2022-12-18T17:02:08;77.57;;;40.55;;
46036;SDS011;31769;49.304;8.428;2022-12-18T17:05:14;72.72;;;38.58;;
46036;SDS011;31769;49.304;8.428;2022-12-18T17:08:15;72.30;;;38.95;;
46036;SDS011;31769;49.304;8.428;2022-12-18T17:11:15;72.93;;;40.28;;
46036;SDS011;31769;49.304;8.428;2022-12-18T17:14:17;73.07;;;40.28;;
46036;SDS011;31769;49.304;8.428;2022-12-18T17:17:21;81.60;;;45.38;;
46036;SDS011;31769;49.304;8.428;2022-12-18T17:20:21;78.55;;;43.40;;
46036;SDS011;31769;49.304;8.428;2022-12-18T17:23:22;75.88;;;40.97;;
46036;SDS011;31769;49.304;8.428;2022-12-18T17:26:23;75.80;;;42.65;;
46036;SDS011;31769;49.304;8.428;2022-12-18T17:29:24;74.43;;;40.33;;
46036;SDS011;31769;49.304;8.428;2022-12-18T17:32:24;99.43;;;54.75;;
46036;SDS011;31769;49.304;8.428;2022-12-18T17:35:25;87.80;;;49.75;;
46036;SDS011;31769;49.304;8.428;2022-12-18T17:38:26;76.68;;;41.45;;
46036;SDS011;31769;49.304;8.428;2022-12-18T17:44:35;73.45;;;40.75;;
46036;SDS011;31769;49.304;8.428;2022-12-18T17:47:36;74.22;;;42.85;;
46036;SDS011;31769;49.304;8.428;2022-12-18T17:50:36;70.65;;;40.90;;
46036;SDS011;31769;49.304;8.428;2022-12-18T17:53:38;69.32;;;40.55;;
46036;SDS011;31769;49.304;8.428;2022-12-18T17:56:39;72.70;;;41.17;;
46036;SDS011;31769;49.304;8.428;2022-12-18T17:59:39;72.38;;;41.25;;
46036;SDS011;31769;49.304;8.428;2022-12-18T18:02:40;69.97;;;39.63;;
46036;SDS011;31769;49.304;8.428;2022-12-18T18:05:41;70.97;;;42.45;;
46036;SDS011;31769;49.304;8.428;2022-12-18T18:08:42;71.70;;;43.28;;
46036;SDS011;31769;49.304;8.428;2022-12-18T18:11:43;74.30;;;40.40;;
46036;SDS011;31769;49.304;8.428;2022-12-18T18:15:03;70.82;;;40.63;;
46036;SDS011;31769;49.304;8.428;2022-12-18T18:18:03;69.40;;;41.28;;
46036;SDS011;31769;49.304;8.428;2022-12-18T18:21:05;68.63;;;40.10;;
46036;SDS011;31769;49.304;8.428;2022-12-18T18:24:09;67.32;;;39.42;;
46036;SDS011;31769;49.304;8.428;2022-12-18T18:27:11;64.88;;;39.17;;
46036;SDS011;31769;49.304;8.428;2022-12-18T18:30:12;68.82;;;39.85;;
46036;SDS011;31769;49.304;8.428;2022-12-18T18:33:13;68.15;;;39.95;;
46036;SDS011;31769;49.304;8.428;2022-12-18T18:36:14;69.93;;;41.05;;
46036;SDS011;31769;49.304;8.428;2022-12-18T18:39:14;71.90;;;42.47;;
46036;SDS011;31769;49.304;8.428;2022-12-18T18:42:15;69.43;;;41.55;;
46036;SDS011;31769;49.304;8.428;2022-12-18T18:45:16;71.97;;;43.35;;
46036;SDS011;31769;49.304;8.428;2022-12-18T18:48:16;73.78;;;42.20;;
46036;SDS011;31769;49.304;8.428;2022-12-18T18:51:17;74.25;;;43.55;;
46036;SDS011;31769;49.304;8.428;2022-12-18T18:54:19;74.25;;;42.20;;
46036;SDS011;31769;49.304;8.428;2022-12-18T18:57:20;72.35;;;43.38;;
46036;SDS011;31769;49.304;8.428;2022-12-18T19:00:21;74.90;;;43.10;;
46036;SDS011;31769;49.304;8.428;2022-12-18T19:03:21;66.93;;;40.17;;
46036;SDS011;31769;49.304;8.428;2022-12-18T19:06:25;65.78;;;40.20;;
46036;SDS011;31769;49.304;8.428;2022-12-18T19:09:26;68.70;;;39.83;;
46036;SDS011;31769;49.304;8.428;2022-12-18T19:12:27;65.80;;;39.38;;
46036;SDS011;31769;49.304;8.428;2022-12-18T19:15:47;65.18;;;40.85;;
46036;SDS011;31769;49.304;8.428;2022-12-18T19:18:48;71.53;;;41.83;;
46036;SDS011;31769;49.304;8.428;2022-12-18T19:21:49;74.00;;;45.88;;
46036;SDS011;31769;49.304;8.428;2022-12-18T19:24:50;72.65;;;45.33;;
46036;SDS011;31769;49.304;8.428;2022-12-18T19:27:50;74.28;;;44.95;;
46036;SDS011;31769;49.304;8.428;2022-12-18T19:30:51;90.13;;;53.53;;
46036;SDS011;31769;49.304;8.428;2022-12-18T19:33:54;96.95;;;58.30;;
46036;SDS011;31769;49.304;8.428;2022-12-18T19:36:55;106.53;;;64.65;;